Terminal Aerodrome Forecast
Issued by NWS Duluth, MN

Home | Current Version | Previous Version | Text Only | Print | Product List | Glossary On
Versions: 1 2 3 4 5 6 7 8 9 10 11 12 13 14 15 16 17 18 19 20 21 22 23 24 25 26 27 28 29 30 31 32
480
FTUS43 KDLH 201439 AAA
TAFINL
TAF AMD
KINL 201439Z 2015/2112 14008KT P6SM -SHRA BKN025 OVC080
      WS015/17040KT
     FM202000 16009KT 6SM -SHRA OVC015
     FM202200 18008KT 3SM SHRA OVC008
     FM210000 23010KT P6SM VCSH OVC008
     FM210200 25007KT P6SM BKN010=

USA.gov is the U.S. government's official web portal to all federal, state and local government web resources and services.